sensor_id;sensor_type;location;lat;lon;timestamp;pressure;altitude;pressure_sealevel;temperature;humidity
49945;BME280;35838;49.134;9.212;2023-02-23T00:00:53;99540.28;;;10.63;78.65
49945;BME280;35838;49.134;9.212;2023-02-23T00:02:26;99537.72;;;10.61;79.02
49945;BME280;35838;49.134;9.212;2023-02-23T00:03:57;99544.63;;;10.61;78.57
49945;BME280;35838;49.134;9.212;2023-02-23T00:05:34;99541.13;;;10.66;78.79
49945;BME280;35838;49.134;9.212;2023-02-23T00:07:05;99544.59;;;10.62;79.07
49945;BME280;35838;49.134;9.212;2023-02-23T00:08:39;99543.84;;;10.53;79.44
49945;BME280;35838;49.134;9.212;2023-02-23T00:10:11;99541.28;;;10.51;79.59
49945;BME280;35838;49.134;9.212;2023-02-23T00:11:47;99541.41;;;10.37;80.32
49945;BME280;35838;49.134;9.212;2023-02-23T00:13:18;99542.22;;;10.42;80.41
49945;BME280;35838;49.134;9.212;2023-02-23T00:14:55;99540.50;;;10.37;80.96
49945;BME280;35838;49.134;9.212;2023-02-23T00:16:29;99544.78;;;10.45;81.00
49945;BME280;35838;49.134;9.212;2023-02-23T00:18:03;99537.00;;;10.45;81.33
49945;BME280;35838;49.134;9.212;2023-02-23T00:19:37;99538.69;;;10.51;81.49
49945;BME280;35838;49.134;9.212;2023-02-23T00:21:08;99540.41;;;10.50;81.81
49945;BME280;35838;49.134;9.212;2023-02-23T00:22:44;99536.97;;;10.47;82.39
49945;BME280;35838;49.134;9.212;2023-02-23T00:24:18;99540.41;;;10.52;82.48
49945;BME280;35838;49.134;9.212;2023-02-23T00:25:52;99532.56;;;10.55;82.62
49945;BME280;35838;49.134;9.212;2023-02-23T00:27:23;99528.25;;;10.56;82.66
49945;BME280;35838;49.134;9.212;2023-02-23T00:28:57;99536.94;;;10.52;83.22
49945;BME280;35838;49.134;9.212;2023-02-23T00:30:33;99544.75;;;10.50;83.56
49945;BME280;35838;49.134;9.212;2023-02-23T00:32:07;99538.72;;;10.45;84.19
49945;BME280;35838;49.134;9.212;2023-02-23T00:33:38;99533.59;;;10.42;84.07
49945;BME280;35838;49.134;9.212;2023-02-23T00:35:12;99536.19;;;10.39;84.49
49945;BME280;35838;49.134;9.212;2023-02-23T00:36:49;99531.00;;;10.39;84.74
49945;BME280;35838;49.134;9.212;2023-02-23T00:38:24;99536.19;;;10.39;84.74
49945;BME280;35838;49.134;9.212;2023-02-23T00:39:58;99537.94;;;10.33;85.29
49945;BME280;35838;49.134;9.212;2023-02-23T00:41:32;99536.22;;;10.35;85.81
49945;BME280;35838;49.134;9.212;2023-02-23T00:43:05;99534.50;;;10.31;86.22
49945;BME280;35838;49.134;9.212;2023-02-23T00:44:39;99535.31;;;10.37;86.32
49945;BME280;35838;49.134;9.212;2023-02-23T00:46:13;99533.59;;;10.34;86.48
49945;BME280;35838;49.134;9.212;2023-02-23T00:47:48;99536.19;;;10.39;86.63
49945;BME280;35838;49.134;9.212;2023-02-23T00:49:22;99531.84;;;10.41;86.82
49945;BME280;35838;49.134;9.212;2023-02-23T00:50:56;99532.72;;;10.43;86.94
49945;BME280;35838;49.134;9.212;2023-02-23T00:52:30;99526.63;;;10.45;87.13
49945;BME280;35838;49.134;9.212;2023-02-23T00:54:04;99530.16;;;10.38;87.78
49945;BME280;35838;49.134;9.212;2023-02-23T00:55:39;99532.75;;;10.38;88.03
49945;BME280;35838;49.134;9.212;2023-02-23T00:57:13;99534.47;;;10.38;88.48
49945;BME280;35838;49.134;9.212;2023-02-23T00:58:46;99524.09;;;10.38;88.55
49945;BME280;35838;49.134;9.212;2023-02-23T01:00:18;99522.34;;;10.37;88.69
49945;BME280;35838;49.134;9.212;2023-02-23T01:01:54;99520.63;;;10.39;88.94
49945;BME280;35838;49.134;9.212;2023-02-23T01:03:25;99529.25;;;10.42;89.05
49945;BME280;35838;49.134;9.212;2023-02-23T01:04:58;99527.47;;;10.46;89.04
49945;BME280;35838;49.134;9.212;2023-02-23T01:06:32;99530.09;;;10.44;89.24
49945;BME280;35838;49.134;9.212;2023-02-23T01:08:04;99528.31;;;10.48;89.29
49945;BME280;35838;49.134;9.212;2023-02-23T01:09:39;99527.44;;;10.49;89.41
49945;BME280;35838;49.134;9.212;2023-02-23T01:11:13;99530.88;;;10.49;89.24
49945;BME280;35838;49.134;9.212;2023-02-23T01:12:48;99521.44;;;10.45;89.23
49945;BME280;35838;49.134;9.212;2023-02-23T01:14:22;99533.56;;;10.43;89.59
49945;BME280;35838;49.134;9.212;2023-02-23T01:15:55;99529.25;;;10.41;89.65
49945;BME280;35838;49.134;9.212;2023-02-23T01:17:32;99530.13;;;10.40;90.09
49945;BME280;35838;49.134;9.212;2023-02-23T01:19:06;99530.13;;;10.40;90.25
49945;BME280;35838;49.134;9.212;2023-02-23T01:20:40;99532.75;;;10.38;90.58
49945;BME280;35838;49.134;9.212;2023-02-23T01:22:11;99531.03;;;10.35;90.98
49945;BME280;35838;49.134;9.212;2023-02-23T01:23:44;99531.88;;;10.34;91.29
49945;BME280;35838;49.134;9.212;2023-02-23T01:25:16;99536.25;;;10.29;91.55
49945;BME280;35838;49.134;9.212;2023-02-23T01:26:50;99529.31;;;10.31;91.54
49945;BME280;35838;49.134;9.212;2023-02-23T01:28:24;99531.09;;;10.26;91.85
49945;BME280;35838;49.134;9.212;2023-02-23T01:29:55;99531.97;;;10.25;92.27
49945;BME280;35838;49.134;9.212;2023-02-23T01:31:28;99525.00;;;10.29;92.10
49945;BME280;35838;49.134;9.212;2023-02-23T01:33:02;99525.00;;;10.30;91.78
49945;BME280;35838;49.134;9.212;2023-02-23T01:34:36;99524.94;;;10.35;91.81
49945;BME280;35838;49.134;9.212;2023-02-23T01:36:09;99535.31;;;10.35;91.63
49945;BME280;35838;49.134;9.212;2023-02-23T01:37:43;99531.00;;;10.39;91.52
49945;BME280;35838;49.134;9.212;2023-02-23T01:39:19;99528.41;;;10.39;91.59
49945;BME280;35838;49.134;9.212;2023-02-23T01:40:53;99525.78;;;10.42;91.68
49945;BME280;35838;49.134;9.212;2023-02-23T01:42:27;99524.06;;;10.41;91.64
49945;BME280;35838;49.134;9.212;2023-02-23T01:44:01;99529.25;;;10.44;91.57
49945;BME280;35838;49.134;9.212;2023-02-23T01:45:33;99523.19;;;10.40;91.94
49945;BME280;35838;49.134;9.212;2023-02-23T01:47:11;99524.06;;;10.41;92.11
49945;BME280;35838;49.134;9.212;2023-02-23T01:48:46;99527.53;;;10.35;92.26
49945;BME280;35838;49.134;9.212;2023-02-23T01:50:20;99519.75;;;10.35;92.56
49945;BME280;35838;49.134;9.212;2023-02-23T01:51:52;99521.50;;;10.34;92.44
49945;BME280;35838;49.134;9.212;2023-02-23T01:53:28;99522.38;;;10.32;92.95
49945;BME280;35838;49.134;9.212;2023-02-23T01:55:03;99523.22;;;10.34;92.66
49945;BME280;35838;49.134;9.212;2023-02-23T01:56:36;99526.72;;;10.28;92.77
49945;BME280;35838;49.134;9.212;2023-02-23T01:58:14;99524.97;;;10.32;92.79
49945;BME280;35838;49.134;9.212;2023-02-23T01:59:47;99519.81;;;10.27;93.17
49945;BME280;35838;49.134;9.212;2023-02-23T02:01:22;99526.91;;;10.11;93.66
49945;BME280;35838;49.134;9.212;2023-02-23T02:02:57;99523.47;;;10.08;94.48
49945;BME280;35838;49.134;9.212;2023-02-23T02:04:32;99531.25;;;10.08;95.00
49945;BME280;35838;49.134;9.212;2023-02-23T02:06:14;99524.28;;;10.10;94.94
49945;BME280;35838;49.134;9.212;2023-02-23T02:07:49;99526.88;;;10.13;94.98
49945;BME280;35838;49.134;9.212;2023-02-23T02:09:28;99523.44;;;10.09;95.45
49945;BME280;35838;49.134;9.212;2023-02-23T02:11:07;99525.16;;;10.10;95.33
49945;BME280;35838;49.134;9.212;2023-02-23T02:12:55;99525.16;;;10.12;95.47
49945;BME280;35838;49.134;9.212;2023-02-23T02:14:29;99523.44;;;10.09;95.56
49945;BME280;35838;49.134;9.212;2023-02-23T02:16:16;99524.28;;;10.10;96.08
49945;BME280;35838;49.134;9.212;2023-02-23T02:17:56;99519.22;;;10.00;96.00
49945;BME280;35838;49.134;9.212;2023-02-23T02:27:10;99514.06;;;9.96;97.26
49945;BME280;35838;49.134;9.212;2023-02-23T02:29:04;99522.72;;;9.92;97.46
49945;BME280;35838;49.134;9.212;2023-02-23T02:31:01;99521.88;;;9.88;97.85
49945;BME280;35838;49.134;9.212;2023-02-23T02:32:54;99517.56;;;9.90;98.21
49945;BME280;35838;49.134;9.212;2023-02-23T02:34:47;99517.56;;;9.90;98.15
49945;BME280;35838;49.134;9.212;2023-02-23T02:38:14;99519.31;;;9.86;98.70
49945;BME280;35838;49.134;9.212;2023-02-23T02:39:53;99516.75;;;9.79;98.96
49945;BME280;35838;49.134;9.212;2023-02-23T02:41:46;99512.50;;;9.70;99.14
49945;BME280;35838;49.134;9.212;2023-02-23T02:43:24;99517.69;;;9.68;99.52
49945;BME280;35838;49.134;9.212;2023-02-23T02:44:58;99525.44;;;9.70;99.74
49945;BME280;35838;49.134;9.212;2023-02-23T02:46:37;99524.56;;;9.77;99.63
49945;BME280;35838;49.134;9.212;2023-02-23T02:48:14;99519.34;;;9.79;99.82
49945;BME280;35838;49.134;9.212;2023-02-23T02:49:49;99517.69;;;9.68;99.64
49945;BME280;35838;49.134;9.212;2023-02-23T02:51:24;99522.97;;;9.56;100.00
49945;BME280;35838;49.134;9.212;2023-02-23T02:53:00;99524.66;;;9.63;100.00
49945;BME280;35838;49.134;9.212;2023-02-23T02:54:39;99520.28;;;9.65;100.00
49945;BME280;35838;49.134;9.212;2023-02-23T02:56:14;99522.03;;;9.68;100.00
49945;BME280;35838;49.134;9.212;2023-02-23T02:57:49;99520.28;;;9.65;100.00
49945;BME280;35838;49.134;9.212;2023-02-23T02:59:25;99517.69;;;9.65;100.00
49945;BME280;35838;49.134;9.212;2023-02-23T03:01:12;99517.84;;;9.47;100.00
49945;BME280;35838;49.134;9.212;2023-02-23T03:02:59;99523.06;;;9.37;100.00
49945;BME280;35838;49.134;9.212;2023-02-23T03:04:45;99526.44;;;9.52;100.00
49945;BME280;35838;49.134;9.212;2023-02-23T03:06:32;99520.41;;;9.51;100.00
49945;BME280;35838;49.134;9.212;2023-02-23T03:08:20;99518.63;;;9.58;100.00
49945;BME280;35838;49.134;9.212;2023-02-23T03:10:11;99514.31;;;9.57;100.00
49945;BME280;35838;49.134;9.212;2023-02-23T03:12:04;99526.44;;;9.52;100.00
49945;BME280;35838;49.134;9.212;2023-02-23T03:13:54;99513.44;;;9.60;100.00
49945;BME280;35838;49.134;9.212;2023-02-23T03:15:44;99516.06;;;9.52;100.00
49945;BME280;35838;49.134;9.212;2023-02-23T03:17:37;99521.22;;;9.56;100.00
49945;BME280;35838;49.134;9.212;2023-02-23T03:19:28;99519.53;;;9.54;100.00
49945;BME280;35838;49.134;9.212;2023-02-23T03:21:15;99517.81;;;9.48;100.00
49945;BME280;35838;49.134;9.212;2023-02-23T03:23:08;99517.78;;;9.54;100.00
49945;BME280;35838;49.134;9.212;2023-02-23T03:24:58;99522.13;;;9.54;100.00
49945;BME280;35838;49.134;9.212;2023-02-23T03:26:49;99521.19;;;9.61;100.00
49945;BME280;35838;49.134;9.212;2023-02-23T03:28:38;99521.19;;;9.61;100.00
49945;BME280;35838;49.134;9.212;2023-02-23T03:30:27;99524.66;;;9.63;100.00
49945;BME280;35838;49.134;9.212;2023-02-23T03:32:16;99523.72;;;9.70;100.00
49945;BME280;35838;49.134;9.212;2023-02-23T03:34:06;99520.25;;;9.73;100.00
49945;BME280;35838;49.134;9.212;2023-02-23T03:35:56;99528.88;;;9.77;100.00
49945;BME280;35838;49.134;9.212;2023-02-23T03:37:47;99526.28;;;9.75;100.00
49945;BME280;35838;49.134;9.212;2023-02-23T03:39:36;99526.34;;;9.67;100.00
49945;BME280;35838;49.134;9.212;2023-02-23T03:41:23;99528.09;;;9.62;100.00
49945;BME280;35838;49.134;9.212;2023-02-23T03:43:15;99523.84;;;9.55;100.00
49945;BME280;35838;49.134;9.212;2023-02-23T03:45:03;99520.31;;;9.64;100.00
49945;BME280;35838;49.134;9.212;2023-02-23T03:46:50;99522.06;;;9.63;100.00
49945;BME280;35838;49.134;9.212;2023-02-23T03:48:37;99527.25;;;9.60;100.00
49945;BME280;35838;49.134;9.212;2023-02-23T03:50:26;99521.22;;;9.58;100.00
49945;BME280;35838;49.134;9.212;2023-02-23T03:52:15;99523.81;;;9.53;100.00
49945;BME280;35838;49.134;9.212;2023-02-23T03:54:03;99521.22;;;9.53;100.00
49945;BME280;35838;49.134;9.212;2023-02-23T03:55:53;99527.31;;;9.48;100.00
49945;BME280;35838;49.134;9.212;2023-02-23T03:57:41;99526.44;;;9.49;100.00
49945;BME280;35838;49.134;9.212;2023-02-23T03:59:33;99526.50;;;9.39;100.00
49945;BME280;35838;49.134;9.212;2023-02-23T04:01:20;99526.44;;;9.49;100.00
49945;BME280;35838;49.134;9.212;2023-02-23T04:03:08;99522.97;;;9.53;100.00
49945;BME280;35838;49.134;9.212;2023-02-23T04:04:57;99524.75;;;9.41;100.00
49945;BME280;35838;49.134;9.212;2023-02-23T04:06:44;99522.22;;;9.32;100.00
49945;BME280;35838;49.134;9.212;2023-02-23T04:08:32;99524.81;;;9.34;100.00
49945;BME280;35838;49.134;9.212;2023-02-23T04:10:19;99526.50;;;9.41;100.00
49945;BME280;35838;49.134;9.212;2023-02-23T04:12:08;99527.34;;;9.45;100.00
49945;BME280;35838;49.134;9.212;2023-02-23T04:13:57;99527.31;;;9.48;100.00
49945;BME280;35838;49.134;9.212;2023-02-23T04:15:33;99524.72;;;9.46;100.00
49945;BME280;35838;49.134;9.212;2023-02-23T04:17:05;99528.22;;;9.42;100.00
49945;BME280;35838;49.134;9.212;2023-02-23T04:18:38;99525.63;;;9.44;100.00
49945;BME280;35838;49.134;9.212;2023-02-23T04:20:12;99529.94;;;9.41;100.00
49945;BME280;35838;49.134;9.212;2023-02-23T04:21:43;99533.38;;;9.45;100.00
49945;BME280;35838;49.134;9.212;2023-02-23T04:23:17;99530.81;;;9.44;100.00
49945;BME280;35838;49.134;9.212;2023-02-23T04:24:52;99535.97;;;9.48;100.00
49945;BME280;35838;49.134;9.212;2023-02-23T04:26:23;99532.50;;;9.46;100.00
49945;BME280;35838;49.134;9.212;2023-02-23T04:27:57;99529.06;;;9.43;100.00
49945;BME280;35838;49.134;9.212;2023-02-23T04:29:30;99534.25;;;9.39;100.00
49945;BME280;35838;49.134;9.212;2023-02-23T04:31:06;99535.22;;;9.23;100.00
49945;BME280;35838;49.134;9.212;2023-02-23T04:32:40;99536.97;;;9.18;100.00
49945;BME280;35838;49.134;9.212;2023-02-23T04:34:11;99543.00;;;9.17;100.00
49945;BME280;35838;49.134;9.212;2023-02-23T04:35:45;99537.81;;;9.18;100.00
49945;BME280;35838;49.134;9.212;2023-02-23T04:37:18;99546.53;;;8.92;100.00
49945;BME280;35838;49.134;9.212;2023-02-23T04:38:52;99547.38;;;9.07;100.00
49945;BME280;35838;49.134;9.212;2023-02-23T04:40:25;99543.97;;;8.94;100.00
49945;BME280;35838;49.134;9.212;2023-02-23T04:41:57;99549.97;;;9.04;100.00
49945;BME280;35838;49.134;9.212;2023-02-23T04:43:30;99548.22;;;9.04;100.00
49945;BME280;35838;49.134;9.212;2023-02-23T04:45:04;99544.78;;;9.08;100.00
49945;BME280;35838;49.134;9.212;2023-02-23T04:46:38;99549.06;;;9.13;100.00
49945;BME280;35838;49.134;9.212;2023-02-23T04:48:12;99552.63;;;8.76;100.00
49945;BME280;35838;49.134;9.212;2023-02-23T04:49:46;99550.03;;;8.88;100.00
49945;BME280;35838;49.134;9.212;2023-02-23T04:51:19;99542.22;;;8.94;100.00
49945;BME280;35838;49.134;9.212;2023-02-23T04:52:53;99543.06;;;9.01;100.00
49945;BME280;35838;49.134;9.212;2023-02-23T04:54:24;99538.75;;;9.00;100.00
49945;BME280;35838;49.134;9.212;2023-02-23T04:55:57;99545.63;;;9.07;100.00
49945;BME280;35838;49.134;9.212;2023-02-23T04:57:31;99549.94;;;9.10;100.00
49945;BME280;35838;49.134;9.212;2023-02-23T04:59:05;99542.22;;;8.96;100.00
49945;BME280;35838;49.134;9.212;2023-02-23T05:00:39;99549.09;;;9.06;100.00
49945;BME280;35838;49.134;9.212;2023-02-23T05:02:15;99550.81;;;9.07;100.00
49945;BME280;35838;49.134;9.212;2023-02-23T05:03:49;99549.94;;;9.10;100.00
49945;BME280;35838;49.134;9.212;2023-02-23T05:05:22;99549.94;;;9.12;100.00
49945;BME280;35838;49.134;9.212;2023-02-23T05:06:56;99544.72;;;9.18;100.00
49945;BME280;35838;49.134;9.212;2023-02-23T05:08:27;99545.59;;;9.14;100.00
49945;BME280;35838;49.134;9.212;2023-02-23T05:10:01;99545.63;;;9.15;100.00
49945;BME280;35838;49.134;9.212;2023-02-23T05:11:32;99548.19;;;9.17;100.00
49945;BME280;35838;49.134;9.212;2023-02-23T05:13:05;99545.59;;;9.20;100.00
49945;BME280;35838;49.134;9.212;2023-02-23T05:14:39;99539.56;;;9.21;100.00
49945;BME280;35838;49.134;9.212;2023-02-23T05:16:13;99536.09;;;9.17;100.00
49945;BME280;35838;49.134;9.212;2023-02-23T05:17:49;99532.66;;;9.15;100.00
49945;BME280;35838;49.134;9.212;2023-02-23T05:19:23;99531.78;;;9.15;100.00
49945;BME280;35838;49.134;9.212;2023-02-23T05:21:00;99523.19;;;9.11;100.00
49945;BME280;35838;49.134;9.212;2023-02-23T05:22:31;99525.78;;;9.11;100.00
49945;BME280;35838;49.134;9.212;2023-02-23T05:24:05;99529.25;;;9.12;100.00
49945;BME280;35838;49.134;9.212;2023-02-23T05:25:39;99532.66;;;9.14;100.00
49945;BME280;35838;49.134;9.212;2023-02-23T05:27:12;99537.00;;;9.16;100.00
49945;BME280;35838;49.134;9.212;2023-02-23T05:28:47;99537.00;;;9.13;100.00
49945;BME280;35838;49.134;9.212;2023-02-23T05:30:21;99535.25;;;9.17;100.00
49945;BME280;35838;49.134;9.212;2023-02-23T05:31:54;99535.25;;;9.14;100.00
49945;BME280;35838;49.134;9.212;2023-02-23T05:33:31;99541.31;;;9.09;100.00
49945;BME280;35838;49.134;9.212;2023-02-23T05:35:04;99534.41;;;9.13;100.00
49945;BME280;35838;49.134;9.212;2023-02-23T05:36:36;99533.53;;;9.16;100.00
49945;BME280;35838;49.134;9.212;2023-02-23T05:38:10;99538.72;;;9.14;100.00
49945;BME280;35838;49.134;9.212;2023-02-23T05:39:43;99541.28;;;9.17;100.00
49945;BME280;35838;49.134;9.212;2023-02-23T05:41:18;99538.69;;;9.19;100.00
49945;BME280;35838;49.134;9.212;2023-02-23T05:42:57;99544.72;;;9.21;100.00
49945;BME280;35838;49.134;9.212;2023-02-23T05:44:31;99543.81;;;9.27;100.00
49945;BME280;35838;49.134;9.212;2023-02-23T05:46:05;99541.22;;;9.27;100.00
49945;BME280;35838;49.134;9.212;2023-02-23T05:47:38;99549.00;;;9.22;100.00
49945;BME280;35838;49.134;9.212;2023-02-23T05:49:14;99544.69;;;9.24;100.00
49945;BME280;35838;49.134;9.212;2023-02-23T05:50:48;99546.44;;;9.20;100.00
49945;BME280;35838;49.134;9.212;2023-02-23T05:52:22;99549.91;;;9.18;100.00
49945;BME280;35838;49.134;9.212;2023-02-23T05:53:55;99543.00;;;9.18;100.00
49945;BME280;35838;49.134;9.212;2023-02-23T05:55:29;99540.44;;;9.15;100.00
49945;BME280;35838;49.134;9.212;2023-02-23T05:57:03;99545.59;;;9.18;100.00
49945;BME280;35838;49.134;9.212;2023-02-23T05:58:37;99549.94;;;9.13;100.00
49945;BME280;35838;49.134;9.212;2023-02-23T06:00:11;99549.09;;;9.09;100.00
49945;BME280;35838;49.134;9.212;2023-02-23T06:01:45;99541.31;;;9.11;100.00
49945;BME280;35838;49.134;9.212;2023-02-23T06:03:19;99547.31;;;9.15;100.00
49945;BME280;35838;49.134;9.212;2023-02-23T06:04:55;99543.03;;;9.15;100.00
49945;BME280;35838;49.134;9.212;2023-02-23T06:06:29;99544.75;;;9.15;100.00
49945;BME280;35838;49.134;9.212;2023-02-23T06:08:02;99543.88;;;9.16;100.00
49945;BME280;35838;49.134;9.212;2023-02-23T06:09:36;99543.88;;;9.16;100.00
49945;BME280;35838;49.134;9.212;2023-02-23T06:11:10;99546.47;;;9.08;100.00
49945;BME280;35838;49.134;9.212;2023-02-23T06:12:44;99547.34;;;9.08;100.00
49945;BME280;35838;49.134;9.212;2023-02-23T06:14:18;99550.84;;;9.01;100.00
49945;BME280;35838;49.134;9.212;2023-02-23T06:15:51;99555.16;;;9.07;100.00
49945;BME280;35838;49.134;9.212;2023-02-23T06:17:25;99550.91;;;8.86;100.00
49945;BME280;35838;49.134;9.212;2023-02-23T06:18:59;99556.88;;;8.97;100.00
49945;BME280;35838;49.134;9.212;2023-02-23T06:20:35;99556.88;;;9.03;100.00
49945;BME280;35838;49.134;9.212;2023-02-23T06:22:09;99559.44;;;9.06;100.00
49945;BME280;35838;49.134;9.212;2023-02-23T06:23:43;99559.47;;;8.97;100.00
49945;BME280;35838;49.134;9.212;2023-02-23T06:25:16;99562.06;;;8.99;100.00
49945;BME280;35838;49.134;9.212;2023-02-23T06:26:50;99560.31;;;9.01;100.00
49945;BME280;35838;49.134;9.212;2023-02-23T06:28:24;99560.31;;;9.04;100.00
49945;BME280;35838;49.134;9.212;2023-02-23T06:29:58;99562.91;;;9.12;100.00
49945;BME280;35838;49.134;9.212;2023-02-23T06:31:31;99559.44;;;9.14;100.00
49945;BME280;35838;49.134;9.212;2023-02-23T06:33:05;99555.97;;;9.14;100.00
49945;BME280;35838;49.134;9.212;2023-02-23T06:34:39;99552.53;;;9.16;100.00
49945;BME280;35838;49.134;9.212;2023-02-23T06:36:17;99562.91;;;9.12;100.00
49945;BME280;35838;49.134;9.212;2023-02-23T06:37:51;99570.63;;;9.18;100.00
49945;BME280;35838;49.134;9.212;2023-02-23T06:39:25;99561.16;;;9.11;100.00
49945;BME280;35838;49.134;9.212;2023-02-23T06:40:58;99565.44;;;9.18;100.00
49945;BME280;35838;49.134;9.212;2023-02-23T06:42:32;99567.22;;;9.06;100.00
49945;BME280;35838;49.134;9.212;2023-02-23T06:44:05;99569.75;;;9.16;100.00
49945;BME280;35838;49.134;9.212;2023-02-23T06:45:39;99561.97;;;9.17;100.00
49945;BME280;35838;49.134;9.212;2023-02-23T06:47:12;99574.91;;;9.27;100.00
49945;BME280;35838;49.134;9.212;2023-02-23T06:48:46;99574.03;;;9.28;100.00
49945;BME280;35838;49.134;9.212;2023-02-23T06:50:20;99570.63;;;9.25;100.00
49945;BME280;35838;49.134;9.212;2023-02-23T06:51:56;99580.09;;;9.25;100.00
49945;BME280;35838;49.134;9.212;2023-02-23T06:53:29;99576.63;;;9.26;100.00
49945;BME280;35838;49.134;9.212;2023-02-23T06:55:04;99577.47;;;9.27;100.00
49945;BME280;35838;49.134;9.212;2023-02-23T06:56:38;99581.81;;;9.26;100.00
49945;BME280;35838;49.134;9.212;2023-02-23T06:58:12;99580.09;;;9.17;100.00
49945;BME280;35838;49.134;9.212;2023-02-23T06:59:45;99584.41;;;9.23;100.00
49945;BME280;35838;49.134;9.212;2023-02-23T07:01:19;99586.16;;;9.25;100.00
49945;BME280;35838;49.134;9.212;2023-02-23T07:02:53;99587.84;;;9.25;100.00
49945;BME280;35838;49.134;9.212;2023-02-23T07:04:26;99590.47;;;9.23;100.00
49945;BME280;35838;49.134;9.212;2023-02-23T07:05:59;99593.06;;;9.20;100.00
49945;BME280;35838;49.134;9.212;2023-02-23T07:07:38;99590.47;;;9.20;100.00
49945;BME280;35838;49.134;9.212;2023-02-23T07:09:11;99586.16;;;9.18;100.00
49945;BME280;35838;49.134;9.212;2023-02-23T07:10:45;99590.47;;;9.17;100.00
49945;BME280;35838;49.134;9.212;2023-02-23T07:12:19;99591.38;;;9.12;100.00
49945;BME280;35838;49.134;9.212;2023-02-23T07:13:52;99593.09;;;9.14;100.00
49945;BME280;35838;49.134;9.212;2023-02-23T07:15:26;99593.94;;;9.16;100.00
49945;BME280;35838;49.134;9.212;2023-02-23T07:16:59;99593.91;;;9.19;100.00
49945;BME280;35838;49.134;9.212;2023-02-23T07:18:33;99591.34;;;9.15;100.00
49945;BME280;35838;49.134;9.212;2023-02-23T07:20:08;99597.38;;;9.20;100.00
49945;BME280;35838;49.134;9.212;2023-02-23T07:21:42;99599.09;;;9.15;100.00
49945;BME280;35838;49.134;9.212;2023-02-23T07:23:18;99600.88;;;9.09;100.00
49945;BME280;35838;49.134;9.212;2023-02-23T07:24:51;99603.44;;;9.16;100.00
49945;BME280;35838;49.134;9.212;2023-02-23T07:26:25;99600.84;;;9.16;100.00
49945;BME280;35838;49.134;9.212;2023-02-23T07:27:59;99606.00;;;9.16;100.00
49945;BME280;35838;49.134;9.212;2023-02-23T07:29:33;99606.00;;;9.16;100.00
49945;BME280;35838;49.134;9.212;2023-02-23T07:31:06;99609.50;;;9.12;100.00
49945;BME280;35838;49.134;9.212;2023-02-23T07:32:40;99607.75;;;9.14;100.00
49945;BME280;35838;49.134;9.212;2023-02-23T07:34:14;99609.47;;;9.21;100.00
49945;BME280;35838;49.134;9.212;2023-02-23T07:35:48;99606.00;;;9.17;100.00
49945;BME280;35838;49.134;9.212;2023-02-23T07:37:21;99607.78;;;9.11;100.00
49945;BME280;35838;49.134;9.212;2023-02-23T07:38:58;99617.31;;;8.93;100.00
49945;BME280;35838;49.134;9.212;2023-02-23T07:40:31;99619.84;;;9.05;100.00
49945;BME280;35838;49.134;9.212;2023-02-23T07:42:05;99613.84;;;8.91;100.00
49945;BME280;35838;49.134;9.212;2023-02-23T07:43:39;99612.09;;;8.91;100.00
49945;BME280;35838;49.134;9.212;2023-02-23T07:45:12;99619.00;;;8.92;100.00
49945;BME280;35838;49.134;9.212;2023-02-23T07:46:46;99618.97;;;9.08;100.00
49945;BME280;35838;49.134;9.212;2023-02-23T07:48:22;99616.38;;;9.16;100.00
49945;BME280;35838;49.134;9.212;2023-02-23T07:49:56;99608.59;;;9.20;100.00
49945;BME280;35838;49.134;9.212;2023-02-23T07:51:32;99609.44;;;9.27;100.00
49945;BME280;35838;49.134;9.212;2023-02-23T07:53:05;99611.16;;;9.28;100.00
49945;BME280;35838;49.134;9.212;2023-02-23T07:54:41;99609.41;;;9.33;100.00
49945;BME280;35838;49.134;9.212;2023-02-23T07:56:15;99611.09;;;9.40;100.00
49945;BME280;35838;49.134;9.212;2023-02-23T07:57:49;99608.47;;;9.53;100.00
49945;BME280;35838;49.134;9.212;2023-02-23T14:25:46;99490.88;;;14.47;62.36
49945;BME280;35838;49.134;9.212;2023-02-23T14:27:21;99486.34;;;14.53;61.84
49945;BME280;35838;49.134;9.212;2023-02-23T14:30:45;99487.59;;;14.38;61.85
49945;BME280;35838;49.134;9.212;2023-02-23T14:32:27;99489.81;;;14.19;61.72
49945;BME280;35838;49.134;9.212;2023-02-23T14:34:05;99489.16;;;14.11;62.17
49945;BME280;35838;49.134;9.212;2023-02-23T14:35:43;99492.31;;;13.89;61.59
49945;BME280;35838;49.134;9.212;2023-02-23T14:37:18;99487.81;;;13.94;62.47
49945;BME280;35838;49.134;9.212;2023-02-23T14:38:57;99481.72;;;13.95;63.00
49945;BME280;35838;49.134;9.212;2023-02-23T14:40:33;99486.97;;;13.94;63.30
49945;BME280;35838;49.134;9.212;2023-02-23T14:42:13;99483.25;;;14.04;62.94
49945;BME280;35838;49.134;9.212;2023-02-23T14:43:52;99493.38;;;14.17;62.63
49945;BME280;35838;49.134;9.212;2023-02-23T14:45:27;99493.06;;;14.29;62.52
49945;BME280;35838;49.134;9.212;2023-02-23T14:47:02;99488.06;;;14.20;61.91
49945;BME280;35838;49.134;9.212;2023-02-23T14:48:38;99488.84;;;14.23;61.75
49945;BME280;35838;49.134;9.212;2023-02-23T14:50:16;99477.81;;;14.47;61.76
49945;BME280;35838;49.134;9.212;2023-02-23T14:51:51;99490.16;;;14.40;61.30
49945;BME280;35838;49.134;9.212;2023-02-23T14:53:25;99481.72;;;14.30;60.91
49945;BME280;35838;49.134;9.212;2023-02-23T14:55:06;99483.91;;;14.13;61.06
49945;BME280;35838;49.134;9.212;2023-02-23T14:56:46;99488.25;;;14.14;63.05
49945;BME280;35838;49.134;9.212;2023-02-23T14:58:24;99484.75;;;14.15;63.49
49945;BME280;35838;49.134;9.212;2023-02-23T14:59:59;99484.03;;;14.06;63.98
49945;BME280;35838;49.134;9.212;2023-02-23T15:01:35;99489.31;;;14.05;64.31
49945;BME280;35838;49.134;9.212;2023-02-23T15:03:09;99483.47;;;13.95;63.68
49945;BME280;35838;49.134;9.212;2023-02-23T15:04:44;99489.69;;;13.89;63.78
49945;BME280;35838;49.134;9.212;2023-02-23T15:06:18;99485.66;;;13.77;63.79
49945;BME280;35838;49.134;9.212;2023-02-23T15:07:52;99491.75;;;13.76;63.72
49945;BME280;35838;49.134;9.212;2023-02-23T15:09:30;99493.47;;;13.77;63.74